KMLB/MLB METAR and TAF weather

Enter ICAO airport designator
Station Type Date Time Source
KMLB METAR 2020/09/24 10:53 UTC NOAA

KMLB 241053Z 16004KT 10SM FEW007 24/23 A2996 RMK AO2 SLP145 T02440228


Station Type Date Time Source
KMLB Decoded METAR 2020/09/24 10:53 UTC NOAA

MELBOURNE INTERNATIONAL, FL, United States (KMLB) 28-06N 080-39W 10M
Sep 24, 2020 - 06:53 AM EDT / 2020.09.24 1053 UTC
Wind: from the SSE (160 degrees) at 5 MPH (4 KT):0
Visibility: 10 mile(s):0
Sky conditions: mostly clear
Temperature: 75.9 F (24.4 C)
Dew Point: 73.0 F (22.8 C)
Relative Humidity: 90%
Pressure (altimeter): 29.96 in. Hg (1014 hPa)
ob: KMLB 241053Z 16004KT 10SM FEW007 24/23 A2996 RMK AO2 SLP145 T02440228
cycle: 11

Station Type Date Time Source
KMLB TAF 2020/09/24 06:48 UTC NOAA

TAF KMLB 240545Z 2406/2506 12006KT P6SM VCSH FEW030 BKN060
FM241500 12010KT P6SM SCT035 BKN250
FM250200 12011KT P6SM VCSH SCT025 SCT060

Example: see airport list